createdAt,value
2019-04-26T00:00:41.151Z,96650.67
2019-04-26T00:03:09.358Z,96652.37
2019-04-26T00:05:38.649Z,96650.28
2019-04-26T00:08:05.473Z,96645.70
2019-04-26T00:10:44.699Z,96639.29
2019-04-26T00:13:22.508Z,96637.45
2019-04-26T00:16:07.299Z,96662.68
2019-04-26T00:18:33.983Z,96653.20
2019-04-26T00:21:00.582Z,96654.89
2019-04-26T00:23:27.257Z,96643.28
2019-04-26T00:25:54.305Z,96645.77
2019-04-26T00:28:21.193Z,96650.43
2019-04-26T00:30:48.064Z,96653.81
2019-04-26T00:33:15.279Z,96653.56
2019-04-26T00:35:47.708Z,96653.56
2019-04-26T00:38:11.631Z,96656.06
2019-04-26T00:40:39.461Z,96653.48
2019-04-26T00:43:06.358Z,96657.27
2019-04-26T00:45:33.632Z,96656.45
2019-04-26T00:48:00.463Z,96651.88
2019-04-26T00:50:27.149Z,96652.69
2019-04-26T00:52:54.551Z,96656.63
2019-04-26T00:55:21.940Z,96658.07
2019-04-26T00:57:48.984Z,96657.67
2019-04-26T01:00:17.973Z,96656.63
2019-04-26T01:02:51.216Z,96664.10
2019-04-26T01:05:18.920Z,96670.77
2019-04-26T01:07:47.711Z,96666.22
2019-04-26T01:10:16.175Z,96676.42
2019-04-26T01:12:42.992Z,96672.97
2019-04-26T01:15:09.720Z,96670.32
2019-04-26T01:17:36.468Z,96682.61
2019-04-26T01:20:03.552Z,96689.75
2019-04-26T01:22:34.380Z,96685.58
2019-04-26T01:25:02.100Z,96685.26
2019-04-26T01:27:29.239Z,96684.70
2019-04-26T01:30:00.322Z,96692.00
2019-04-26T01:32:28.286Z,96693.05
2019-04-26T01:37:43.077Z,96692.48
2019-04-26T01:40:13.976Z,96693.29
2019-04-26T01:43:14.026Z,96678.91
2019-04-26T01:45:46.815Z,96678.11
2019-04-26T01:48:40.590Z,96682.05
2019-04-26T01:51:08.029Z,96661.94
2019-04-26T01:53:34.971Z,96679.63
2019-04-26T01:56:01.683Z,96679.63
2019-04-26T01:58:29.280Z,96678.27
2019-04-26T02:01:07.859Z,96685.90
2019-04-26T02:03:34.568Z,96678.83
2019-04-26T02:06:01.214Z,96679.47
2019-04-26T02:08:28.290Z,96684.10
2019-04-26T02:10:55.067Z,96680.97
2019-04-26T02:13:22.540Z,96675.91
2019-04-26T02:15:50.318Z,96673.05
2019-04-26T02:18:17.015Z,96667.18
2019-04-26T02:20:52.662Z,96658.11
2019-04-26T02:23:26.388Z,96658.42
2019-04-26T02:25:53.197Z,96654.24
2019-04-26T02:28:19.982Z,96660.09
2019-04-26T02:30:46.905Z,96651.85
2019-04-26T02:33:13.741Z,96657.14
2019-04-26T02:35:40.432Z,96657.22
2019-04-26T02:38:07.175Z,96654.56
2019-04-26T02:40:34.924Z,96653.59
2019-04-26T02:43:01.814Z,96649.58
2019-04-26T02:45:43.979Z,96647.97
2019-04-26T02:48:37.519Z,96627.45
2019-04-26T02:51:09.564Z,96623.13
2019-04-26T02:53:53.103Z,96621.59
2019-04-26T02:56:24.013Z,96630.64
2019-04-26T02:59:30.175Z,96635.05
2019-04-26T03:02:00.428Z,96626.14
2019-04-26T03:04:28.916Z,96627.58
2019-04-26T03:07:03.638Z,96625.17
2019-04-26T03:09:31.768Z,96615.14
2019-04-26T03:12:03.996Z,96612.73
2019-04-26T03:15:12.663Z,96611.13
2019-04-26T03:17:50.399Z,96610.08
2019-04-26T03:20:22.164Z,96611.27
2019-04-26T03:23:02.345Z,96608.89
2019-04-26T03:25:53.979Z,96612.25
2019-04-26T03:28:36.916Z,96621.55
2019-04-26T03:31:17.331Z,96618.09
2019-04-26T03:34:19.306Z,96612.16
2019-04-26T03:37:25.452Z,96618.72
2019-04-26T03:40:06.354Z,96609.81
2019-04-26T03:43:24.023Z,96607.97
2019-04-26T03:46:23.369Z,96611.81
2019-04-26T03:49:16.175Z,96620.61
2019-04-26T03:52:00.060Z,96623.97
2019-04-26T03:54:28.692Z,96625.75
2019-04-26T03:57:13.801Z,96630.46
2019-04-26T04:00:13.884Z,96633.02
2019-04-26T04:03:30.535Z,96624.87
2019-04-26T04:05:59.440Z,96632.25
2019-04-26T04:08:34.436Z,96630.08
2019-04-26T04:11:05.187Z,96628.72
2019-04-26T04:13:51.676Z,96630.64
2019-04-26T04:16:39.205Z,96633.36
2019-04-26T04:20:01.348Z,96636.40
2019-04-26T04:22:33.347Z,96635.28
2019-04-26T04:25:03.144Z,96631.51
2019-04-26T04:27:35.941Z,96632.56
2019-04-26T04:30:29.705Z,96646.42
2019-04-26T04:33:09.215Z,96644.78
2019-04-26T04:35:44.352Z,96653.44
2019-04-26T04:38:24.385Z,96651.62
2019-04-26T04:41:24.077Z,96651.62
2019-04-26T04:44:06.749Z,96660.56
2019-04-26T04:47:30.971Z,96662.52
2019-04-26T04:50:32.810Z,96656.77
2019-04-26T04:53:33.396Z,96665.25
2019-04-26T04:56:11.565Z,96666.61
2019-04-26T04:58:46.300Z,96669.64
2019-04-26T05:02:03.835Z,96657.95
2019-04-26T05:04:38.611Z,96677.27
2019-04-26T05:07:32.175Z,96674.84
2019-04-26T05:10:27.753Z,96663.39
2019-04-26T05:13:23.046Z,96686.55
2019-04-26T05:16:28.520Z,96683.33
2019-04-26T05:19:39.129Z,96682.77
2019-04-26T05:22:32.231Z,96692.55
2019-04-26T05:25:40.577Z,96700.42
2019-04-26T05:28:17.953Z,96689.45
2019-04-26T05:31:30.752Z,96690.78
2019-04-26T05:34:43.592Z,96704.02
2019-04-26T05:37:57.321Z,96699.88
2019-04-26T05:40:48.194Z,96705.22
2019-04-26T05:43:32.107Z,96700.83
2019-04-26T05:46:30.736Z,96701.00
2019-04-26T05:49:28.343Z,96703.34
2019-04-26T05:52:24.944Z,96710.27
2019-04-26T05:55:28.518Z,96709.33
2019-04-26T05:58:17.729Z,96714.95
2019-04-26T06:01:17.571Z,96712.62
2019-04-26T06:04:24.609Z,96723.14
2019-04-26T06:07:43.151Z,96717.87
2019-04-26T06:10:32.138Z,96721.89
2019-04-26T06:13:35.054Z,96727.76
2019-04-26T06:16:18.016Z,96727.69
2019-04-26T06:18:57.256Z,96723.45
2019-04-26T06:21:45.697Z,96719.52
2019-04-26T06:24:33.162Z,96733.49
2019-04-26T06:27:36.173Z,96721.22
2019-04-26T06:30:07.959Z,96724.05
2019-04-26T06:32:42.444Z,96722.30
2019-04-26T06:35:20.186Z,96728.41
2019-04-26T06:38:17.115Z,96726.86
2019-04-26T06:41:06.419Z,96736.51
2019-04-26T06:43:41.301Z,96743.74
2019-04-26T06:47:08.624Z,96742.47
2019-04-26T06:50:20.031Z,96736.27
2019-04-26T06:53:03.571Z,96736.53
2019-04-26T06:55:39.105Z,96739.62
2019-04-26T06:58:49.519Z,96734.48
2019-04-26T07:01:46.261Z,96738.08
2019-04-26T07:04:42.157Z,96747.31
2019-04-26T07:08:07.550Z,96745.15
2019-04-26T07:11:22.971Z,96746.23
2019-04-26T07:14:03.440Z,96747.60
2019-04-26T07:16:49.740Z,96751.94
2019-04-26T07:19:48.428Z,96739.59
2019-04-26T07:22:55.387Z,96735.25
2019-04-26T07:26:11.773Z,96738.28
2019-04-26T07:29:00.100Z,96742.34
2019-04-26T07:31:51.310Z,96745.29
2019-04-26T07:34:51.955Z,96760.63
2019-04-26T07:37:34.714Z,96762.18
2019-04-26T07:40:29.896Z,96764.03
2019-04-26T07:43:33.252Z,96765.95
2019-04-26T07:46:16.758Z,96767.09
2019-04-26T07:49:10.734Z,96766.28
2019-04-26T07:52:14.249Z,96774.61
2019-04-26T07:55:04.859Z,96787.88
2019-04-26T07:58:20.754Z,96780.53
2019-04-26T08:00:56.154Z,96778.19
2019-04-26T08:03:39.791Z,96787.94
2019-04-26T08:06:16.440Z,96787.02
2019-04-26T08:08:52.974Z,96787.13
2019-04-26T08:11:27.702Z,96778.37
2019-04-26T08:14:06.694Z,96773.42
2019-04-26T08:16:52.541Z,96784.56
2019-04-26T08:19:20.912Z,96788.26
2019-04-26T08:21:49.276Z,96789.25
2019-04-26T08:24:21.498Z,96796.98
2019-04-26T08:27:13.646Z,96805.61
2019-04-26T08:29:38.039Z,96807.27
2019-04-26T08:32:07.007Z,96803.45
2019-04-26T08:34:37.106Z,96801.91
2019-04-26T08:37:12.713Z,96806.28
2019-04-26T08:39:45.467Z,96810.78
2019-04-26T08:42:18.211Z,96822.12
2019-04-26T08:44:59.892Z,96819.39
2019-04-26T08:47:45.890Z,96825.38
2019-04-26T08:50:17.689Z,96821.97
2019-04-26T08:52:45.335Z,96823.13
2019-04-26T08:55:13.906Z,96839.38
2019-04-26T08:57:41.967Z,96842.59
2019-04-26T09:00:15.498Z,96844.19
2019-04-26T09:03:11.341Z,96840.52
2019-04-26T09:05:53.949Z,96853.78
2019-04-26T09:08:23.020Z,96851.95
2019-04-26T09:10:51.386Z,96862.91
2019-04-26T09:13:20.768Z,96858.55
2019-04-26T09:16:19.796Z,96864.84
2019-04-26T09:18:52.664Z,96867.38
2019-04-26T09:21:19.239Z,96868.90
2019-04-26T09:24:04.535Z,96872.23
2019-04-26T09:26:35.414Z,96872.00
2019-04-26T09:29:20.206Z,96872.11
2019-04-26T09:31:50.478Z,96873.69
2019-04-26T09:34:17.691Z,96872.77
2019-04-26T09:36:44.683Z,96878.46
2019-04-26T09:39:12.066Z,96887.61
2019-04-26T09:41:38.904Z,96888.28
2019-04-26T09:44:12.508Z,96896.31
2019-04-26T09:46:58.699Z,96882.79
2019-04-26T09:49:33.240Z,96895.03
2019-04-26T09:52:00.475Z,96903.16
2019-04-26T09:54:27.209Z,96898.81
2019-04-26T09:56:54.082Z,96892.42
2019-04-26T09:59:20.620Z,96892.88
2019-04-26T10:01:47.367Z,96890.71
2019-04-26T10:04:14.028Z,96897.23
2019-04-26T10:06:40.691Z,96902.05
2019-04-26T10:09:12.905Z,96900.70
2019-04-26T10:11:45.456Z,96905.64
2019-04-26T10:14:16.358Z,96899.70
2019-04-26T10:16:58.983Z,96899.37
2019-04-26T10:19:33.158Z,96907.06
2019-04-26T10:21:59.734Z,96923.63
2019-04-26T10:24:26.417Z,96925.23
2019-04-26T10:26:55.425Z,96925.95
2019-04-26T10:29:25.535Z,96931.66
2019-04-26T10:31:51.703Z,96936.59
2019-04-26T10:34:18.799Z,96931.34
2019-04-26T10:36:45.659Z,96946.92
2019-04-26T10:39:12.511Z,96953.88
2019-04-26T10:41:39.350Z,96951.55
2019-04-26T10:44:06.117Z,96948.63
2019-04-26T10:46:32.771Z,96942.50
2019-04-26T10:49:08.574Z,96941.83
2019-04-26T10:51:34.289Z,96936.41
2019-04-26T10:54:15.068Z,96943.94
2019-04-26T10:57:07.342Z,96945.77
2019-04-26T10:59:55.128Z,96951.50
2019-04-26T11:02:22.373Z,96938.72
2019-04-26T11:04:49.124Z,96954.64
2019-04-26T11:07:15.784Z,96963.38
2019-04-26T11:09:42.621Z,96947.72
2019-04-26T11:12:11.552Z,96947.98
2019-04-26T11:14:38.098Z,96953.78
2019-04-26T11:17:05.157Z,96966.05
2019-04-26T11:19:35.160Z,96977.32
2019-04-26T11:22:00.356Z,96985.03
2019-04-26T11:24:27.084Z,96972.36
2019-04-26T11:26:53.768Z,96983.36
2019-04-26T11:29:20.463Z,96973.47
2019-04-26T11:31:47.017Z,96983.84
2019-04-26T11:34:13.656Z,96991.59
2019-04-26T11:36:41.768Z,96977.51
2019-04-26T11:39:12.410Z,96981.56
2019-04-26T11:41:39.326Z,96986.59
2019-04-26T11:44:06.008Z,96992.64
2019-04-26T11:46:44.182Z,96998.54
2019-04-26T11:49:03.190Z,96995.56
2019-04-26T11:51:29.934Z,97001.37
2019-04-26T11:53:56.583Z,97011.70
2019-04-26T11:56:23.422Z,97010.52
2019-04-26T11:58:52.553Z,97016.30
2019-04-26T12:01:20.585Z,97030.43
2019-04-26T12:04:16.247Z,97041.55
2019-04-26T12:06:50.603Z,97022.49
2019-04-26T12:09:35.591Z,97037.45
2019-04-26T12:12:04.934Z,97030.60
2019-04-26T12:14:33.537Z,97041.84
2019-04-26T12:17:01.281Z,97048.98
2019-04-26T12:19:27.964Z,97050.82
2019-04-26T12:21:54.678Z,97055.70
2019-04-26T12:24:21.319Z,97058.58
2019-04-26T12:26:47.984Z,97076.48
2019-04-26T12:29:15.560Z,97085.73
2019-04-26T12:31:42.614Z,97090.50
2019-04-26T12:34:09.327Z,97098.80
2019-04-26T12:39:08.176Z,97100.91
2019-04-26T12:41:40.310Z,97095.23
2019-04-26T12:44:03.496Z,97105.73
2019-04-26T12:46:39.866Z,97120.13
2019-04-26T12:49:06.508Z,97129.16
2019-04-26T12:51:33.201Z,97135.63
2019-04-26T12:54:03.728Z,97136.34
2019-04-26T12:56:31.230Z,97134.48
2019-04-26T12:58:56.864Z,97133.17
2019-04-26T13:01:23.567Z,97127.03
2019-04-26T13:04:09.762Z,97117.91
2019-04-26T13:06:43.695Z,97116.02
2019-04-26T13:09:13.274Z,97116.95
2019-04-26T13:11:52.876Z,97117.45
2019-04-26T13:14:38.800Z,97141.03
2019-04-26T13:17:06.956Z,97138.73
2019-04-26T13:19:33.655Z,97147.36
2019-04-26T13:22:00.471Z,97142.52
2019-04-26T13:24:27.120Z,97142.46
2019-04-26T13:26:53.838Z,97155.00
2019-04-26T13:29:20.431Z,97152.89
2019-04-26T13:31:47.086Z,97165.80
2019-04-26T13:34:13.795Z,97155.58
2019-04-26T13:36:40.474Z,97160.97
2019-04-26T13:39:13.546Z,97158.31
2019-04-26T13:41:40.232Z,97161.09
2019-04-26T13:44:07.202Z,97163.77
2019-04-26T13:46:49.072Z,97175.80
2019-04-26T13:49:38.117Z,97177.91
2019-04-26T13:52:04.754Z,97181.39
2019-04-26T13:54:31.288Z,97173.20
2019-04-26T13:56:57.929Z,97190.14
2019-04-26T13:59:24.567Z,97189.08
2019-04-26T14:01:52.804Z,97192.84
2019-04-26T14:04:19.508Z,97193.25
2019-04-26T14:06:46.142Z,97188.44
2019-04-26T14:09:13.289Z,97197.34
2019-04-26T14:11:40.111Z,97195.87
2019-04-26T14:14:06.871Z,97205.02
2019-04-26T14:16:33.512Z,97210.78
2019-04-26T14:19:00.178Z,97216.75
2019-04-26T14:21:29.158Z,97234.66
2019-04-26T14:24:13.756Z,97237.78
2019-04-26T14:26:46.492Z,97239.64
2019-04-26T14:29:13.270Z,97249.14
2019-04-26T14:31:40.002Z,97246.30
2019-04-26T14:34:07.088Z,97256.30
2019-04-26T14:36:33.904Z,97270.73
2019-04-26T14:39:05.960Z,97268.39
2019-04-26T14:41:29.110Z,97269.81
2019-04-26T14:43:56.815Z,97271.70
2019-04-26T14:46:23.596Z,97261.66
2019-04-26T14:49:00.821Z,97253.31
2019-04-26T14:51:19.085Z,97252.33
2019-04-26T14:53:45.660Z,97252.58
2019-04-26T14:56:12.420Z,97250.67
2019-04-26T14:58:39.130Z,97258.37
2019-04-26T15:01:07.501Z,97265.25
2019-04-26T15:03:41.051Z,97281.95
2019-04-26T15:06:16.820Z,97294.31
2019-04-26T15:08:46.838Z,97289.23
2019-04-26T15:11:12.838Z,97297.25
2019-04-26T15:13:40.540Z,97308.63
2019-04-26T15:16:10.417Z,97309.53
2019-04-26T15:18:37.247Z,97312.25
2019-04-26T15:21:04.321Z,97314.12
2019-04-26T15:23:30.943Z,97328.87
2019-04-26T15:25:58.650Z,97328.34
2019-04-26T15:28:25.466Z,97336.60
2019-04-26T15:30:52.711Z,97341.87
2019-04-26T15:33:19.376Z,97326.73
2019-04-26T15:35:47.155Z,97319.70
2019-04-26T15:38:13.686Z,97316.50
2019-04-26T15:41:05.350Z,97319.99
2019-04-26T15:43:43.075Z,97321.94
2019-04-26T15:46:16.004Z,97332.03
2019-04-26T15:49:03.114Z,97325.41
2019-04-26T15:51:32.446Z,97337.59
2019-04-26T15:53:59.332Z,97339.70
2019-04-26T15:56:26.177Z,97341.29
2019-04-26T15:58:52.835Z,97353.15
2019-04-26T16:01:19.507Z,97357.20
2019-04-26T16:03:46.147Z,97361.83
2019-04-26T16:06:12.813Z,97365.74
2019-04-26T16:08:42.646Z,97368.20
2019-04-26T16:11:11.263Z,97372.63
2019-04-26T16:13:36.900Z,97366.64
2019-04-26T16:16:03.855Z,97356.89
2019-04-26T16:18:32.283Z,97360.44
2019-04-26T16:20:59.236Z,97356.58
2019-04-26T16:23:38.160Z,97354.31
2019-04-26T16:25:54.370Z,97360.40
2019-04-26T16:28:52.613Z,97359.26
2019-04-26T16:31:35.938Z,97369.01
2019-04-26T16:34:10.548Z,97379.12
2019-04-26T16:36:36.556Z,97393.41
2019-04-26T16:39:05.960Z,97399.89
2019-04-26T16:41:37.648Z,97395.88
2019-04-26T16:44:02.643Z,97390.33
2019-04-26T16:46:33.288Z,97388.67
2019-04-26T16:49:03.733Z,97386.79
2019-04-26T16:51:28.747Z,97386.59
2019-04-26T16:54:06.798Z,97381.49
2019-04-26T16:56:26.691Z,97378.70
2019-04-26T16:58:54.786Z,97374.17
2019-04-26T17:01:22.891Z,97391.02
2019-04-26T17:03:49.567Z,97391.31
2019-04-26T17:06:16.326Z,97388.28
2019-04-26T17:08:49.960Z,97388.55
2019-04-26T17:11:12.124Z,97395.64
2019-04-26T17:13:49.240Z,97395.14
2019-04-26T17:16:08.312Z,97409.22
2019-04-26T17:18:34.944Z,97420.75
2019-04-26T17:21:02.555Z,97432.46
2019-04-26T17:23:39.596Z,97439.32
2019-04-26T17:26:36.567Z,97421.14
2019-04-26T17:29:03.507Z,97422.76
2019-04-26T17:31:30.151Z,97416.85
2019-04-26T17:33:56.794Z,97416.56
2019-04-26T17:36:23.430Z,97417.39
2019-04-26T17:38:50.641Z,97427.23
2019-04-26T17:41:17.360Z,97437.77
2019-04-26T17:43:47.548Z,97438.38
2019-04-26T17:46:17.740Z,97441.61
2019-04-26T17:48:44.786Z,97443.20
2019-04-26T17:51:18.453Z,97440.22
2019-04-26T17:53:40.047Z,97438.84
2019-04-26T17:56:06.815Z,97425.84
2019-04-26T17:58:35.719Z,97435.05
2019-04-26T18:01:03.696Z,97440.47
2019-04-26T18:03:32.536Z,97436.12
2019-04-26T18:06:00.906Z,97430.69
2019-04-26T18:08:38.661Z,97422.27
2019-04-26T18:10:56.330Z,97419.55
2019-04-26T18:13:23.016Z,97417.12
2019-04-26T18:15:49.661Z,97421.45
2019-04-26T18:18:38.668Z,97414.39
2019-04-26T18:21:43.704Z,97420.38
2019-04-26T18:24:10.667Z,97422.55
2019-04-26T18:26:37.366Z,97418.75
2019-04-26T18:29:04.232Z,97424.45
2019-04-26T18:31:31.010Z,97424.20
2019-04-26T18:34:00.723Z,97433.70
2019-04-26T18:36:27.556Z,97434.28
2019-04-26T18:38:54.628Z,97432.39
2019-04-26T18:41:23.114Z,97437.28
2019-04-26T18:43:54.054Z,97439.70
2019-04-26T18:46:24.176Z,97442.43
2019-04-26T18:48:50.703Z,97450.30
2019-04-26T18:51:17.235Z,97451.12
2019-04-26T18:54:02.772Z,97456.02
2019-04-26T18:56:33.732Z,97460.62
2019-04-26T18:59:03.085Z,97459.80
2019-04-26T19:01:29.978Z,97453.55
2019-04-26T19:04:00.622Z,97460.33
2019-04-26T19:06:31.888Z,97458.71
2019-04-26T19:08:57.628Z,97455.67
2019-04-26T19:11:22.923Z,97467.88
2019-04-26T19:14:14.968Z,97467.33
2019-04-26T19:16:56.744Z,97470.59
2019-04-26T19:19:37.646Z,97463.33
2019-04-26T19:22:04.531Z,97466.25
2019-04-26T19:24:31.187Z,97477.11
2019-04-26T19:26:57.849Z,97468.48
2019-04-26T19:29:31.350Z,97473.62
2019-04-26T19:31:56.651Z,97471.95
2019-04-26T19:34:21.961Z,97481.44
2019-04-26T19:36:49.081Z,97476.81
2019-04-26T19:39:16.242Z,97472.47
2019-04-26T19:41:42.944Z,97475.19
2019-04-26T19:44:09.485Z,97478.44
2019-04-26T19:46:46.410Z,97472.47
2019-04-26T19:49:45.033Z,97467.03
2019-04-26T19:52:39.503Z,97464.05
2019-04-26T19:55:24.960Z,97474.90
2019-04-26T19:57:56.875Z,97477.61
2019-04-26T20:00:23.672Z,97469.74
2019-04-26T20:02:52.205Z,97465.12
2019-04-26T20:05:19.160Z,97460.80
2019-04-26T20:07:46.016Z,97471.64
2019-04-26T20:10:12.985Z,97479.23
2019-04-26T20:12:40.982Z,97486.02
2019-04-26T20:15:08.160Z,97484.39
2019-04-26T20:17:35.825Z,97484.39
2019-04-26T20:20:02.812Z,97493.34
2019-04-26T20:22:30.566Z,97489.55
2019-04-26T20:24:58.110Z,97490.64
2019-04-26T20:27:27.792Z,97497.97
2019-04-26T20:29:53.560Z,97495.27
2019-04-26T20:32:41.997Z,97487.39
2019-04-26T20:35:26.086Z,97486.03
2019-04-26T20:40:28.154Z,97482.21
2019-04-26T20:43:01.657Z,97485.50
2019-04-26T20:45:24.424Z,97496.07
2019-04-26T20:47:54.486Z,97494.44
2019-04-26T20:50:21.656Z,97495.79
2019-04-26T20:52:48.504Z,97500.69
2019-04-26T20:55:15.278Z,97496.34
2019-04-26T20:57:44.571Z,97488.20
2019-04-26T21:00:12.614Z,97495.79
2019-04-26T21:02:39.615Z,97495.24
2019-04-26T21:05:11.313Z,97504.46
2019-04-26T21:07:34.911Z,97502.55
2019-04-26T21:10:01.819Z,97506.91
2019-04-26T21:12:28.609Z,97507.47
2019-04-26T21:14:55.352Z,97499.86
2019-04-26T21:17:24.280Z,97478.71
2019-04-26T21:19:54.908Z,97481.94
2019-04-26T21:22:25.434Z,97487.91
2019-04-26T21:24:55.375Z,97494.42
2019-04-26T21:27:29.780Z,97491.16
2019-04-26T21:30:15.211Z,97493.06
2019-04-26T21:33:13.488Z,97493.34
2019-04-26T21:36:02.056Z,97494.69
2019-04-26T21:38:31.133Z,97488.98
2019-04-26T21:41:10.967Z,97484.92
2019-04-26T21:43:34.733Z,97478.95
2019-04-26T21:46:07.631Z,97492.52
2019-04-26T21:48:28.991Z,97497.95
2019-04-26T21:50:56.542Z,97498.49
2019-04-26T21:53:23.980Z,97510.73
2019-04-26T21:55:50.855Z,97512.09
2019-04-26T21:58:17.412Z,97508.02
2019-04-26T22:01:05.657Z,97508.30
2019-04-26T22:03:32.308Z,97511.28
2019-04-26T22:05:59.101Z,97511.28
2019-04-26T22:08:29.291Z,97509.92
2019-04-26T22:10:55.943Z,97505.31
2019-04-26T22:13:26.279Z,97502.88
2019-04-26T22:16:07.759Z,97505.86
2019-04-26T22:19:03.985Z,97508.30
2019-04-26T22:21:36.076Z,97509.11
2019-04-26T22:24:06.954Z,97510.46
2019-04-26T22:26:34.063Z,97505.57
2019-04-26T22:29:00.745Z,97504.21
2019-04-26T22:31:27.376Z,97500.41
2019-04-26T22:33:56.031Z,97498.23
2019-04-26T22:36:23.328Z,97492.54
2019-04-26T22:38:50.068Z,97490.91
2019-04-26T22:41:16.732Z,97494.44
2019-04-26T22:44:10.215Z,97494.45
2019-04-26T22:47:03.595Z,97495.55
2019-04-26T22:49:27.849Z,97508.56
2019-04-26T22:51:55.754Z,97496.09
2019-04-26T22:54:23.057Z,97494.20
2019-04-26T22:56:50.956Z,97490.17
2019-04-26T22:59:17.789Z,97486.10
2019-04-26T23:01:48.517Z,97486.91
2019-04-26T23:04:16.176Z,97490.44
2019-04-26T23:06:42.367Z,97499.13
2019-04-26T23:09:11.646Z,97501.30
2019-04-26T23:11:45.328Z,97500.20
2019-04-26T23:14:31.179Z,97497.45
2019-04-26T23:17:31.403Z,97501.30
2019-04-26T23:20:10.742Z,97498.86
2019-04-26T23:22:37.281Z,97497.78
2019-04-26T23:25:03.968Z,97497.77
2019-04-26T23:27:30.757Z,97500.22
2019-04-26T23:29:58.513Z,97498.59
2019-04-26T23:32:25.234Z,97502.93
2019-04-26T23:34:53.134Z,97501.05
2019-04-26T23:37:25.898Z,97498.88
2019-04-26T23:39:49.698Z,97497.24
2019-04-26T23:42:17.604Z,97493.72
2019-04-26T23:44:44.319Z,97492.34
2019-04-26T23:47:20.545Z,97493.16
2019-04-26T23:49:39.663Z,97486.13
2019-04-26T23:52:06.285Z,97485.05
2019-04-26T23:54:35.864Z,97473.91
2019-04-26T23:57:02.905Z,97473.67
2019-04-26T23:59:29.608Z,97481.23
